Terminal Aerodrome Forecast
Issued by NWS

Home | Current Version | Previous Version | Text Only | Print | Product List | Glossary On
Versions: 1 2 3 4 5 6 7 8 9 10 11 12 13 14 15 16 17 18 19 20 21 22 23 24 25 26 27
000
FTUS46 KPDT 210500
TAFALW
TAF
KALW 210528Z 2106/2206 21015G25KT 5SM -RA BR OVC040
     FM211200 23025G40KT P6SM OVC060
     FM212000 22020G30KT P6SM BKN070=

USA.gov is the U.S. government's official web portal to all federal, state and local government web resources and services.